createdAt,value
2016-12-04T00:00:51.631Z,1000.98
2016-12-04T00:01:51.659Z,1001.01
2016-12-04T00:02:51.688Z,1001.06
2016-12-04T00:03:51.716Z,1001.01
2016-12-04T00:04:51.742Z,1001.03
2016-12-04T00:05:51.775Z,1001.04
2016-12-04T00:06:51.800Z,1001.08
2016-12-04T00:07:51.823Z,1001.06
2016-12-04T00:08:51.850Z,1001.12
2016-12-04T00:09:51.876Z,1001.09
2016-12-04T00:10:51.909Z,1001.05
2016-12-04T00:11:51.929Z,1001.05
2016-12-04T00:12:51.963Z,1001.03
2016-12-04T00:13:51.987Z,1001.06
2016-12-04T00:14:52.015Z,1001.03
2016-12-04T00:15:52.044Z,1001.02
2016-12-04T00:16:52.064Z,1001.01
2016-12-04T00:17:52.098Z,1001.01
2016-12-04T00:18:52.122Z,1001
2016-12-04T00:19:52.163Z,1001.01
2016-12-04T00:20:52.183Z,1000.99
2016-12-04T00:21:52.205Z,1000.97
2016-12-04T00:22:52.237Z,1001.05
2016-12-04T00:23:52.263Z,1000.98
2016-12-04T00:24:52.286Z,1001.02
2016-12-04T00:25:52.315Z,1001.02
2016-12-04T00:26:52.343Z,1001.05
2016-12-04T00:27:52.368Z,1001.04
2016-12-04T00:28:52.402Z,1001.06
2016-12-04T00:29:52.422Z,1001.06
2016-12-04T00:30:52.450Z,1001.09
2016-12-04T00:31:52.479Z,1001.05
2016-12-04T00:32:52.513Z,1001.1
2016-12-04T00:33:52.533Z,1001.07
2016-12-04T00:34:52.558Z,1001.08
2016-12-04T00:35:52.596Z,1001.09
2016-12-04T00:36:52.619Z,1001.1
2016-12-04T00:37:52.644Z,1001.11
2016-12-04T00:38:52.673Z,1001.08
2016-12-04T00:39:52.698Z,1001.13
2016-12-04T00:40:52.735Z,1001.17
2016-12-04T00:41:52.757Z,1001.15
2016-12-04T00:42:52.784Z,1001.2
2016-12-04T00:43:52.816Z,1001.24
2016-12-04T00:44:52.836Z,1001.21
2016-12-04T00:45:52.867Z,1001.22
2016-12-04T00:46:52.896Z,1001.21
2016-12-04T00:47:52.920Z,1001.21
2016-12-04T00:48:52.950Z,1001.22
2016-12-04T00:49:52.977Z,1001.22
2016-12-04T00:50:53.004Z,1001.26
2016-12-04T00:51:53.035Z,1001.21
2016-12-04T00:52:53.060Z,1001.25
2016-12-04T00:53:53.085Z,1001.25
2016-12-04T00:54:53.114Z,1001.25
2016-12-04T00:55:53.156Z,1001.2
2016-12-04T00:56:53.169Z,1001.21
2016-12-04T00:57:53.195Z,1001.21
2016-12-04T00:58:53.225Z,1001.22
2016-12-04T00:59:53.255Z,1001.21
2016-12-04T01:00:53.274Z,1001.22
2016-12-04T01:01:53.307Z,1001.19
2016-12-04T01:02:53.336Z,1001.22
2016-12-04T01:03:53.363Z,1001.2
2016-12-04T01:04:53.390Z,1001.2
2016-12-04T01:05:53.422Z,1001.19
2016-12-04T01:06:53.443Z,1001.23
2016-12-04T01:07:53.479Z,1001.21
2016-12-04T01:08:53.502Z,1001.21
2016-12-04T01:09:53.521Z,1001.26
2016-12-04T01:10:53.558Z,1001.29
2016-12-04T01:11:53.587Z,1001.28
2016-12-04T01:12:53.611Z,1001.25
2016-12-04T01:13:53.640Z,1001.27
2016-12-04T01:14:53.665Z,1001.27
2016-12-04T01:15:53.690Z,1001.31
2016-12-04T01:16:53.718Z,1001.26
2016-12-04T01:17:53.746Z,1001.29
2016-12-04T01:18:53.776Z,1001.32
2016-12-04T01:19:53.801Z,1001.27
2016-12-04T01:20:53.829Z,1001.3
2016-12-04T01:21:53.857Z,1001.25
2016-12-04T01:22:53.883Z,1001.3
2016-12-04T01:23:53.912Z,1001.29
2016-12-04T01:24:53.937Z,1001.3
2016-12-04T01:25:53.968Z,1001.35
2016-12-04T01:26:53.993Z,1001.32
2016-12-04T01:27:54.021Z,1001.28
2016-12-04T01:28:54.047Z,1001.3
2016-12-04T01:29:54.076Z,1001.34
2016-12-04T01:30:54.100Z,1001.3
2016-12-04T01:31:54.132Z,1001.33
2016-12-04T01:32:54.154Z,1001.36
2016-12-04T01:33:54.196Z,1001.35
2016-12-04T01:34:54.212Z,1001.34
2016-12-04T01:35:54.236Z,1001.37
2016-12-04T01:36:54.264Z,1001.32
2016-12-04T01:37:54.298Z,1001.31
2016-12-04T01:38:54.322Z,1001.3
2016-12-04T01:39:54.346Z,1001.3
2016-12-04T01:40:54.376Z,1001.28
2016-12-04T01:41:54.400Z,1001.34
2016-12-04T01:42:54.429Z,1001.31
2016-12-04T01:43:54.462Z,1001.26
2016-12-04T01:44:54.480Z,1001.32
2016-12-04T01:45:54.523Z,1001.27
2016-12-04T01:46:54.536Z,1001.32
2016-12-04T01:47:54.565Z,1001.29
2016-12-04T01:48:54.593Z,1001.31
2016-12-04T01:49:54.622Z,1001.32
2016-12-04T01:50:54.651Z,1001.27
2016-12-04T01:51:54.691Z,1001.29
2016-12-04T01:52:54.701Z,1001.28
2016-12-04T01:53:54.734Z,1001.25
2016-12-04T01:54:54.761Z,1001.25
2016-12-04T01:55:54.789Z,1001.24
2016-12-04T01:56:54.812Z,1001.27
2016-12-04T01:57:54.841Z,1001.23
2016-12-04T01:58:54.865Z,1001.26
2016-12-04T01:59:54.897Z,1001.22
2016-12-04T02:00:54.920Z,1001.26
2016-12-04T02:01:54.948Z,1001.19
2016-12-04T02:02:54.977Z,1001.26
2016-12-04T02:03:55.002Z,1001.21
2016-12-04T02:04:55.027Z,1001.23
2016-12-04T02:05:55.059Z,1001.21
2016-12-04T02:06:55.088Z,1001.21
2016-12-04T02:07:55.117Z,1001.24
2016-12-04T02:08:55.142Z,1001.2
2016-12-04T02:09:55.170Z,1001.19
2016-12-04T02:10:55.194Z,1001.18
2016-12-04T02:11:55.228Z,1001.22
2016-12-04T02:12:55.248Z,1001.17
2016-12-04T02:13:55.278Z,1001.14
2016-12-04T02:14:55.305Z,1001.18
2016-12-04T02:15:55.330Z,1001.21
2016-12-04T02:16:55.360Z,1001.17
2016-12-04T02:17:55.399Z,1001.18
2016-12-04T02:18:55.417Z,1001.18
2016-12-04T02:19:55.451Z,1001.16
2016-12-04T02:20:55.462Z,1001.2
2016-12-04T02:21:55.503Z,1001.14
2016-12-04T02:22:55.524Z,1001.16
2016-12-04T02:23:55.549Z,1001.14
2016-12-04T02:24:55.577Z,1001.13
2016-12-04T02:25:55.608Z,1001.11
2016-12-04T02:26:55.635Z,1001.18
2016-12-04T02:27:55.664Z,1001.14
2016-12-04T02:28:55.681Z,1001.12
2016-12-04T02:29:55.723Z,1001.09
2016-12-04T02:30:55.742Z,1001.13
2016-12-04T02:31:55.766Z,1001.1
2016-12-04T02:32:55.799Z,1001.07
2016-12-04T02:33:55.824Z,1001.07
2016-12-04T02:34:55.849Z,1001.09
2016-12-04T02:35:55.890Z,1001.05
2016-12-04T02:36:55.903Z,1001.09
2016-12-04T02:37:55.935Z,1001.09
2016-12-04T02:38:55.963Z,1001.07
2016-12-04T02:39:55.981Z,1001.01
2016-12-04T02:40:56.017Z,1001.04
2016-12-04T02:41:56.041Z,1001
2016-12-04T02:42:56.070Z,1000.99
2016-12-04T02:43:56.095Z,1001
2016-12-04T02:44:56.116Z,1001
2016-12-04T02:45:56.155Z,1000.97
2016-12-04T02:46:56.175Z,1001
2016-12-04T02:47:56.206Z,1000.99
2016-12-04T02:48:56.227Z,1001.02
2016-12-04T02:49:56.256Z,1001.01
2016-12-04T02:50:56.283Z,1000.99
2016-12-04T02:51:56.316Z,1001.01
2016-12-04T02:52:56.336Z,1000.99
2016-12-04T02:53:56.369Z,1000.98
2016-12-04T02:54:56.394Z,1000.98
2016-12-04T02:55:56.419Z,1001.01
2016-12-04T02:56:56.443Z,1001
2016-12-04T02:57:56.476Z,1001
2016-12-04T02:58:56.513Z,1001.01
2016-12-04T02:59:56.525Z,1000.97
2016-12-04T03:00:56.554Z,1000.97
2016-12-04T03:01:56.578Z,1000.98
2016-12-04T03:02:56.611Z,1000.98
2016-12-04T03:03:56.632Z,1000.98
2016-12-04T03:04:56.665Z,1000.97
2016-12-04T03:05:56.694Z,1000.95
2016-12-04T03:06:56.714Z,1001
2016-12-04T03:07:56.744Z,1000.99
2016-12-04T03:08:56.771Z,1001.01
2016-12-04T03:09:56.799Z,1001.01
2016-12-04T03:10:56.820Z,1001.04
2016-12-04T03:11:56.849Z,1001.05
2016-12-04T03:12:56.882Z,1001.05
2016-12-04T03:13:56.905Z,1001.03
2016-12-04T03:14:56.931Z,1001.05
2016-12-04T03:15:56.967Z,1001.04
2016-12-04T03:16:56.988Z,1001.06
2016-12-04T03:17:57.017Z,1001.04
2016-12-04T03:18:57.034Z,1001.05
2016-12-04T03:19:57.066Z,1001
2016-12-04T03:20:57.091Z,1001.03
2016-12-04T03:21:57.128Z,1001.02
2016-12-04T03:22:57.149Z,1000.99
2016-12-04T03:23:57.177Z,1001.03
2016-12-04T03:24:57.204Z,1001.09
2016-12-04T03:25:57.233Z,1001.05
2016-12-04T03:26:57.259Z,1001.1
2016-12-04T03:27:57.284Z,1001.07
2016-12-04T03:28:57.309Z,1000.98
2016-12-04T03:29:57.333Z,1001.04
2016-12-04T03:30:57.362Z,1000.96
2016-12-04T03:31:57.387Z,1000.93
2016-12-04T03:32:57.415Z,1000.95
2016-12-04T03:33:57.444Z,1000.93
2016-12-04T03:34:57.472Z,1000.94
2016-12-04T03:35:57.497Z,1000.93
2016-12-04T03:36:57.521Z,1000.95
2016-12-04T03:37:57.550Z,1000.88
2016-12-04T03:38:57.579Z,1000.91
2016-12-04T03:39:57.608Z,1000.89
2016-12-04T03:40:57.628Z,1000.9
2016-12-04T03:41:57.664Z,1000.89
2016-12-04T03:42:57.686Z,1000.91
2016-12-04T03:43:57.719Z,1000.87
2016-12-04T03:44:57.736Z,1000.84
2016-12-04T03:45:57.768Z,1000.85
2016-12-04T03:46:57.795Z,1000.88
2016-12-04T03:47:57.817Z,1000.84
2016-12-04T03:48:57.845Z,1000.85
2016-12-04T03:49:57.884Z,1000.87
2016-12-04T03:50:57.905Z,1000.83
2016-12-04T03:51:57.931Z,1000.91
2016-12-04T03:52:57.956Z,1000.84
2016-12-04T03:53:57.985Z,1000.88
2016-12-04T03:54:58.009Z,1000.87
2016-12-04T03:55:58.034Z,1000.87
2016-12-04T03:56:58.060Z,1000.84
2016-12-04T03:57:58.095Z,1000.86
2016-12-04T03:58:58.112Z,1000.88
2016-12-04T03:59:58.144Z,1000.83
2016-12-04T04:00:58.170Z,1000.89
2016-12-04T04:01:58.191Z,1000.91
2016-12-04T04:02:58.223Z,1000.91
2016-12-04T04:03:58.248Z,1000.94
2016-12-04T04:04:58.277Z,1000.94
2016-12-04T04:05:58.302Z,1000.95
2016-12-04T04:06:58.326Z,1000.9
2016-12-04T04:07:58.358Z,1000.91
2016-12-04T04:08:58.380Z,1000.94
2016-12-04T04:09:58.408Z,1000.94
2016-12-04T04:10:58.437Z,1000.92
2016-12-04T04:11:58.466Z,1000.98
2016-12-04T04:12:58.487Z,1000.93
2016-12-04T04:13:58.523Z,1000.93
2016-12-04T04:14:58.544Z,1000.97
2016-12-04T04:15:58.574Z,1000.95
2016-12-04T04:16:58.599Z,1000.97
2016-12-04T04:17:58.636Z,1000.98
2016-12-04T04:18:58.651Z,1000.99
2016-12-04T04:19:58.678Z,1000.98
2016-12-04T04:20:58.705Z,1000.97
2016-12-04T04:21:58.734Z,1001.02
2016-12-04T04:22:58.755Z,1000.96
2016-12-04T04:23:58.785Z,1001.03
2016-12-04T04:24:58.807Z,1001.02
2016-12-04T04:25:58.836Z,1001.05
2016-12-04T04:26:58.865Z,1001.06
2016-12-04T04:27:58.890Z,1001.05
2016-12-04T04:28:58.915Z,1001.05
2016-12-04T04:29:58.944Z,1001.03
2016-12-04T04:30:58.968Z,1001.04
2016-12-04T04:31:59.003Z,1001.02
2016-12-04T04:32:59.022Z,1001.08
2016-12-04T04:33:59.051Z,1001.06
2016-12-04T04:34:59.075Z,1001.11
2016-12-04T04:35:59.108Z,1001.05
2016-12-04T04:36:59.132Z,1001.01
2016-12-04T04:37:59.162Z,1001.09
2016-12-04T04:38:59.179Z,1001.03
2016-12-04T04:39:59.215Z,1001.07
2016-12-04T04:40:59.240Z,1001.09
2016-12-04T04:41:59.275Z,1001.07
2016-12-04T04:42:59.291Z,1001.1
2016-12-04T04:43:59.319Z,1001.1
2016-12-04T04:44:59.345Z,1001.12
2016-12-04T04:45:59.368Z,1001.11
2016-12-04T04:46:59.396Z,1001.14
2016-12-04T04:47:59.430Z,1001.18
2016-12-04T04:48:59.454Z,1001.15
2016-12-04T04:49:59.475Z,1001.14
2016-12-04T04:50:59.503Z,1001.18
2016-12-04T04:51:59.532Z,1001.15
2016-12-04T04:52:59.557Z,1001.11
2016-12-04T04:53:59.579Z,1001.14
2016-12-04T04:54:59.611Z,1001.13
2016-12-04T04:55:59.647Z,1001.16
2016-12-04T04:56:59.668Z,1001.12
2016-12-04T04:57:59.688Z,1001.13
2016-12-04T04:58:59.721Z,1001.07
2016-12-04T04:59:59.745Z,1001.12
2016-12-04T05:00:59.771Z,1001.1
2016-12-04T05:01:59.801Z,1001.09
2016-12-04T05:02:59.829Z,1001.09
2016-12-04T05:03:59.854Z,1001.1
2016-12-04T05:04:59.878Z,1001.14
2016-12-04T05:05:59.911Z,1001.18
2016-12-04T05:06:59.928Z,1001.15
2016-12-04T05:07:59.952Z,1001.21
2016-12-04T05:08:59.981Z,1001.2
2016-12-04T05:10:00.006Z,1001.23
2016-12-04T05:11:00.037Z,1001.21
2016-12-04T05:12:00.064Z,1001.23
2016-12-04T05:13:00.094Z,1001.26
2016-12-04T05:14:00.117Z,1001.26
2016-12-04T05:15:00.146Z,1001.23
2016-12-04T05:16:00.171Z,1001.27
2016-12-04T05:17:00.197Z,1001.22
2016-12-04T05:18:00.227Z,1001.26
2016-12-04T05:19:00.250Z,1001.29
2016-12-04T05:20:00.273Z,1001.26
2016-12-04T05:21:00.302Z,1001.24
2016-12-04T05:22:00.331Z,1001.26
2016-12-04T05:23:00.356Z,1001.22
2016-12-04T05:24:00.384Z,1001.28
2016-12-04T05:25:00.409Z,1001.28
2016-12-04T05:26:00.436Z,1001.27
2016-12-04T05:27:00.459Z,1001.27
2016-12-04T05:28:00.487Z,1001.31
2016-12-04T05:29:00.521Z,1001.33
2016-12-04T05:30:00.552Z,1001.31
2016-12-04T05:31:00.574Z,1001.34
2016-12-04T05:32:00.594Z,1001.31
2016-12-04T05:33:00.623Z,1001.31
2016-12-04T05:34:00.648Z,1001.33
2016-12-04T05:35:00.676Z,1001.27
2016-12-04T05:36:00.706Z,1001.34
2016-12-04T05:37:00.726Z,1001.37
2016-12-04T05:38:00.755Z,1001.28
2016-12-04T05:39:00.783Z,1001.29
2016-12-04T05:40:00.816Z,1001.34
2016-12-04T05:41:00.837Z,1001.32
2016-12-04T05:42:00.864Z,1001.38
2016-12-04T05:43:00.882Z,1001.37
2016-12-04T05:44:00.923Z,1001.37
2016-12-04T05:45:00.938Z,1001.4
2016-12-04T05:46:00.964Z,1001.37
2016-12-04T05:47:00.995Z,1001.34
2016-12-04T05:48:01.021Z,1001.37
2016-12-04T05:49:01.046Z,1001.38
2016-12-04T05:50:01.075Z,1001.4
2016-12-04T05:51:01.104Z,1001.4
2016-12-04T05:52:01.135Z,1001.39
2016-12-04T05:53:01.156Z,1001.38
2016-12-04T05:54:01.178Z,1001.37
2016-12-04T05:55:01.207Z,1001.42
2016-12-04T05:56:01.237Z,1001.45
2016-12-04T05:57:01.260Z,1001.4
2016-12-04T05:58:01.289Z,1001.43
2016-12-04T05:59:01.314Z,1001.45
2016-12-04T06:00:01.338Z,1001.45
2016-12-04T06:01:01.363Z,1001.5
2016-12-04T06:02:01.403Z,1001.48
2016-12-04T06:03:01.416Z,1001.47
2016-12-04T06:04:01.449Z,1001.48
2016-12-04T06:05:01.469Z,1001.47
2016-12-04T06:06:01.511Z,1001.42
2016-12-04T06:07:01.527Z,1001.41
2016-12-04T06:08:01.564Z,1001.45
2016-12-04T06:09:01.579Z,1001.45
2016-12-04T06:10:01.615Z,1001.44
2016-12-04T06:11:01.629Z,1001.47
2016-12-04T06:12:01.665Z,1001.44
2016-12-04T06:13:01.683Z,1001.46
2016-12-04T06:14:01.712Z,1001.47
2016-12-04T06:15:01.736Z,1001.46
2016-12-04T06:16:01.766Z,1001.4
2016-12-04T06:17:01.794Z,1001.48
2016-12-04T06:18:01.817Z,1001.5
2016-12-04T06:19:01.842Z,1001.45
2016-12-04T06:20:01.871Z,1001.51
2016-12-04T06:21:01.899Z,1001.52
2016-12-04T06:22:01.935Z,1001.54
2016-12-04T06:23:01.947Z,1001.56
2016-12-04T06:24:01.976Z,1001.54
2016-12-04T06:25:02.005Z,1001.53
2016-12-04T06:26:02.029Z,1001.55
2016-12-04T06:27:02.058Z,1001.57
2016-12-04T06:28:02.083Z,1001.53
2016-12-04T06:29:02.108Z,1001.51
2016-12-04T06:30:02.140Z,1001.56
2016-12-04T06:31:02.162Z,1001.52
2016-12-04T06:32:02.192Z,1001.61
2016-12-04T06:33:02.219Z,1001.57
2016-12-04T06:34:02.243Z,1001.59
2016-12-04T06:35:02.274Z,1001.57
2016-12-04T06:36:02.294Z,1001.61
2016-12-04T06:37:02.330Z,1001.61
2016-12-04T06:38:02.350Z,1001.62
2016-12-04T06:39:02.384Z,1001.61
2016-12-04T06:40:02.406Z,1001.61
2016-12-04T06:41:02.451Z,1001.65
2016-12-04T06:42:02.461Z,1001.69
2016-12-04T06:43:02.486Z,1001.64
2016-12-04T06:44:02.511Z,1001.71
2016-12-04T06:45:02.544Z,1001.72
2016-12-04T06:46:02.576Z,1001.69
2016-12-04T06:47:02.593Z,1001.72
2016-12-04T06:48:02.626Z,1001.67
2016-12-04T06:49:02.651Z,1001.7
2016-12-04T06:50:02.676Z,1001.7
2016-12-04T06:51:02.701Z,1001.73
2016-12-04T06:52:02.733Z,1001.75
2016-12-04T06:53:02.754Z,1001.73
2016-12-04T06:54:02.780Z,1001.77
2016-12-04T06:55:02.812Z,1001.8
2016-12-04T06:56:02.836Z,1001.77
2016-12-04T06:57:02.861Z,1001.81
2016-12-04T06:58:02.899Z,1001.78
2016-12-04T06:59:02.917Z,1001.76
2016-12-04T07:00:02.955Z,1001.8
2016-12-04T07:01:02.972Z,1001.74
2016-12-04T07:02:02.992Z,1001.77
2016-12-04T07:03:03.029Z,1001.79
2016-12-04T07:04:03.050Z,1001.82
2016-12-04T07:05:03.079Z,1001.8
2016-12-04T07:06:03.115Z,1001.83
2016-12-04T07:07:03.131Z,1001.86
2016-12-04T07:08:03.171Z,1001.87
2016-12-04T07:09:03.190Z,1001.91
2016-12-04T07:10:03.216Z,1001.95
2016-12-04T07:11:03.235Z,1001.94
2016-12-04T07:12:03.263Z,1001.96
2016-12-04T07:13:03.292Z,1001.96
2016-12-04T07:14:03.323Z,1002
2016-12-04T07:15:03.346Z,1002.01
2016-12-04T07:16:03.387Z,1002.01
2016-12-04T07:17:03.400Z,1002.04
2016-12-04T07:18:03.432Z,1002.02
2016-12-04T07:19:03.457Z,1002.07
2016-12-04T07:20:03.482Z,1002.06
2016-12-04T07:21:03.504Z,1002.07
2016-12-04T07:22:03.537Z,1002.08
2016-12-04T07:23:03.564Z,1002.09
2016-12-04T07:24:03.592Z,1002.09
2016-12-04T07:25:03.621Z,1002.05
2016-12-04T07:26:03.645Z,1002.08
2016-12-04T07:27:03.669Z,1002.07
2016-12-04T07:28:03.694Z,1002.1
2016-12-04T07:29:03.723Z,1002.09
2016-12-04T07:30:03.748Z,1002.1
2016-12-04T07:31:03.776Z,1002.1
2016-12-04T07:32:03.803Z,1002.11
2016-12-04T07:33:03.834Z,1002.09
2016-12-04T07:34:03.850Z,1002.1
2016-12-04T07:35:03.883Z,1002.1
2016-12-04T07:36:03.916Z,1002.12
2016-12-04T07:37:03.940Z,1002.13
2016-12-04T07:38:03.964Z,1002.19
2016-12-04T07:39:03.990Z,1002.16
2016-12-04T07:40:04.031Z,1002.21
2016-12-04T07:41:04.043Z,1002.16
2016-12-04T07:42:04.072Z,1002.19
2016-12-04T07:43:04.102Z,1002.22
2016-12-04T07:44:04.129Z,1002.22
2016-12-04T07:45:04.150Z,1002.21
2016-12-04T07:46:04.178Z,1002.25
2016-12-04T07:47:04.209Z,1002.21
2016-12-04T07:48:04.232Z,1002.22
2016-12-04T07:49:04.261Z,1002.23
2016-12-04T07:50:04.285Z,1002.2
2016-12-04T07:51:04.313Z,1002.24
2016-12-04T07:52:04.342Z,1002.23
2016-12-04T07:53:04.371Z,1002.24
2016-12-04T07:54:04.391Z,1002.3
2016-12-04T07:55:04.425Z,1002.34
2016-12-04T07:56:04.450Z,1002.3
2016-12-04T07:57:04.478Z,1002.3
2016-12-04T07:58:04.505Z,1002.32
2016-12-04T07:59:04.527Z,1002.39
2016-12-04T08:00:04.555Z,1002.37
2016-12-04T08:01:04.582Z,1002.34
2016-12-04T08:02:04.611Z,1002.34
2016-12-04T08:03:04.639Z,1002.31
2016-12-04T08:04:04.664Z,1002.35
2016-12-04T08:05:04.697Z,1002.29
2016-12-04T08:06:04.721Z,1002.3
2016-12-04T08:07:04.753Z,1002.32
2016-12-04T08:08:04.775Z,1002.28
2016-12-04T08:09:04.799Z,1002.34
2016-12-04T08:10:04.824Z,1002.31
2016-12-04T08:11:04.853Z,1002.33
2016-12-04T08:12:04.891Z,1002.33
2016-12-04T08:13:04.907Z,1002.35
2016-12-04T08:14:04.940Z,1002.39
2016-12-04T08:15:04.960Z,1002.36
2016-12-04T08:16:04.989Z,1002.34
2016-12-04T08:17:05.018Z,1002.41
2016-12-04T08:18:05.042Z,1002.44
2016-12-04T08:19:05.069Z,1002.47
2016-12-04T08:20:05.096Z,1002.42
2016-12-04T08:21:05.127Z,1002.47
2016-12-04T08:22:05.153Z,1002.46
2016-12-04T08:23:05.178Z,1002.47
2016-12-04T08:24:05.207Z,1002.52
2016-12-04T08:25:05.233Z,1002.53
2016-12-04T08:26:05.267Z,1002.51
2016-12-04T08:27:05.285Z,1002.53
2016-12-04T08:28:05.310Z,1002.53
2016-12-04T08:29:05.339Z,1002.56
2016-12-04T08:30:05.368Z,1002.54
2016-12-04T08:31:05.393Z,1002.53
2016-12-04T08:32:05.425Z,1002.48
2016-12-04T08:33:05.450Z,1002.48
2016-12-04T08:34:05.476Z,1002.5
2016-12-04T08:35:05.499Z,1002.51
2016-12-04T08:36:05.529Z,1002.52
2016-12-04T08:37:05.553Z,1002.5
2016-12-04T08:38:05.591Z,1002.5
2016-12-04T08:39:05.615Z,1002.52
2016-12-04T08:40:05.636Z,1002.45
2016-12-04T08:41:05.665Z,1002.47
2016-12-04T08:42:05.698Z,1002.47
2016-12-04T08:43:05.723Z,1002.48
2016-12-04T08:44:05.759Z,1002.46
2016-12-04T08:45:05.772Z,1002.47
2016-12-04T08:46:05.806Z,1002.45
2016-12-04T08:47:05.825Z,1002.5
2016-12-04T08:48:05.858Z,1002.45
2016-12-04T08:49:05.886Z,1002.47
2016-12-04T08:50:05.912Z,1002.43
2016-12-04T08:51:05.941Z,1002.43
2016-12-04T08:52:05.965Z,1002.44
2016-12-04T08:53:05.989Z,1002.47
2016-12-04T08:54:06.024Z,1002.45
2016-12-04T08:55:06.043Z,1002.47
2016-12-04T08:56:06.072Z,1002.42
2016-12-04T08:57:06.104Z,1002.46
2016-12-04T08:58:06.126Z,1002.48
2016-12-04T08:59:06.159Z,1002.47
2016-12-04T09:00:06.184Z,1002.48
2016-12-04T09:01:06.206Z,1002.53
2016-12-04T09:02:06.233Z,1002.54
2016-12-04T09:03:06.266Z,1002.56
2016-12-04T09:04:06.287Z,1002.61
2016-12-04T09:05:06.311Z,1002.62
2016-12-04T09:06:06.342Z,1002.59
2016-12-04T09:07:06.368Z,1002.6
2016-12-04T09:08:06.398Z,1002.62
2016-12-04T09:09:06.426Z,1002.62
2016-12-04T09:10:06.449Z,1002.67
2016-12-04T09:11:06.479Z,1002.67
2016-12-04T09:12:06.511Z,1002.64
2016-12-04T09:13:06.533Z,1002.66
2016-12-04T09:14:06.559Z,1002.66
2016-12-04T09:15:06.590Z,1002.72
2016-12-04T09:16:06.611Z,1002.67
2016-12-04T09:17:06.643Z,1002.71
2016-12-04T09:18:06.659Z,1002.6
2016-12-04T09:19:06.694Z,1002.63
2016-12-04T09:20:06.720Z,1002.61
2016-12-04T09:21:06.745Z,1002.59
2016-12-04T09:22:06.774Z,1002.63
2016-12-04T09:23:06.804Z,1002.59
2016-12-04T09:24:06.831Z,1002.63
2016-12-04T09:25:06.861Z,1002.65
2016-12-04T09:26:06.885Z,1002.62
2016-12-04T09:27:06.907Z,1002.67
2016-12-04T09:28:06.935Z,1002.63
2016-12-04T09:29:06.964Z,1002.67
2016-12-04T09:30:06.992Z,1002.67
2016-12-04T09:31:07.016Z,1002.73
2016-12-04T09:32:07.043Z,1002.69
2016-12-04T09:33:07.076Z,1002.72
2016-12-04T09:34:07.111Z,1002.7
2016-12-04T09:35:07.126Z,1002.72
2016-12-04T09:36:07.151Z,1002.72
2016-12-04T09:37:07.179Z,1002.74
2016-12-04T09:38:07.203Z,1002.68
2016-12-04T09:39:07.231Z,1002.69
2016-12-04T09:40:07.259Z,1002.72
2016-12-04T09:41:07.285Z,1002.7
2016-12-04T09:42:07.315Z,1002.7
2016-12-04T09:43:07.342Z,1002.73
2016-12-04T09:44:07.371Z,1002.7
2016-12-04T09:45:07.392Z,1002.68
2016-12-04T09:46:07.421Z,1002.67
2016-12-04T09:47:07.445Z,1002.67
2016-12-04T09:48:07.479Z,1002.64
2016-12-04T09:49:07.498Z,1002.65
2016-12-04T09:50:07.543Z,1002.66
2016-12-04T09:51:07.556Z,1002.67
2016-12-04T09:52:07.581Z,1002.69
2016-12-04T09:53:07.610Z,1002.63
2016-12-04T09:54:07.639Z,1002.65
2016-12-04T09:55:07.659Z,1002.61
2016-12-04T09:56:07.696Z,1002.61
2016-12-04T09:57:07.713Z,1002.66
2016-12-04T09:58:07.745Z,1002.63
2016-12-04T09:59:07.770Z,1002.63
2016-12-04T10:00:07.799Z,1002.6
2016-12-04T10:01:07.826Z,1002.61
2016-12-04T10:02:07.853Z,1002.67
2016-12-04T10:03:07.877Z,1002.57
2016-12-04T10:04:07.903Z,1002.59
2016-12-04T10:05:07.929Z,1002.58
2016-12-04T10:06:07.960Z,1002.54
2016-12-04T10:07:07.986Z,1002.54
2016-12-04T10:08:08.013Z,1002.52
2016-12-04T10:09:08.038Z,1002.51
2016-12-04T10:10:08.071Z,1002.51
2016-12-04T10:11:08.091Z,1002.53
2016-12-04T10:12:08.124Z,1002.5
2016-12-04T10:13:08.152Z,1002.53
2016-12-04T10:14:08.169Z,1002.51
2016-12-04T10:15:08.208Z,1002.53
2016-12-04T10:16:08.228Z,1002.56
2016-12-04T10:17:08.256Z,1002.5
2016-12-04T10:18:08.285Z,1002.45
2016-12-04T10:19:08.313Z,1002.45
2016-12-04T10:20:08.343Z,1002.45
2016-12-04T10:21:08.367Z,1002.45
2016-12-04T10:22:08.395Z,1002.43
2016-12-04T10:23:08.420Z,1002.44
2016-12-04T10:24:08.445Z,1002.42
2016-12-04T10:25:08.477Z,1002.46
2016-12-04T10:26:08.498Z,1002.45
2016-12-04T10:27:08.527Z,1002.42
2016-12-04T10:28:08.557Z,1002.42
2016-12-04T10:29:08.579Z,1002.38
2016-12-04T10:30:08.615Z,1002.35
2016-12-04T10:31:08.634Z,1002.32
2016-12-04T10:32:08.667Z,1002.35
2016-12-04T10:33:08.685Z,1002.32
2016-12-04T10:34:08.727Z,1002.34
2016-12-04T10:35:08.744Z,1002.32
2016-12-04T10:36:08.770Z,1002.3
2016-12-04T10:37:08.799Z,1002.34
2016-12-04T10:38:08.832Z,1002.29
2016-12-04T10:39:08.850Z,1002.34
2016-12-04T10:40:08.881Z,1002.34
2016-12-04T10:41:08.909Z,1002.32
2016-12-04T10:42:08.939Z,1002.34
2016-12-04T10:43:08.966Z,1002.29
2016-12-04T10:44:08.988Z,1002.26
2016-12-04T10:45:09.021Z,1002.29
2016-12-04T10:46:09.050Z,1002.25
2016-12-04T10:47:09.070Z,1002.29
2016-12-04T10:48:09.102Z,1002.3
2016-12-04T10:49:09.128Z,1002.3
2016-12-04T10:50:09.157Z,1002.34
2016-12-04T10:51:09.181Z,1002.33
2016-12-04T10:52:09.214Z,1002.35
2016-12-04T10:53:09.237Z,1002.37
2016-12-04T10:54:09.271Z,1002.36
2016-12-04T10:55:09.288Z,1002.37
2016-12-04T10:56:09.317Z,1002.35
2016-12-04T10:57:09.345Z,1002.34
2016-12-04T10:58:09.378Z,1002.35
2016-12-04T10:59:09.400Z,1002.37
2016-12-04T11:00:09.428Z,1002.37
2016-12-04T11:01:09.460Z,1002.3
2016-12-04T11:02:09.481Z,1002.33
2016-12-04T11:03:09.513Z,1002.33
2016-12-04T11:04:09.535Z,1002.34
2016-12-04T11:05:09.564Z,1002.32
2016-12-04T11:06:09.603Z,1002.31
2016-12-04T11:07:09.618Z,1002.3
2016-12-04T11:08:09.646Z,1002.28
2016-12-04T11:09:09.671Z,1002.3
2016-12-04T11:10:09.707Z,1002.31
2016-12-04T11:11:09.728Z,1002.3
2016-12-04T11:12:09.762Z,1002.27
2016-12-04T11:13:09.787Z,1002.25
2016-12-04T11:14:09.816Z,1002.24
2016-12-04T11:15:09.839Z,1002.23
2016-12-04T11:16:09.871Z,1002.22
2016-12-04T11:17:09.892Z,1002.21
2016-12-04T11:18:09.922Z,1002.22
2016-12-04T11:19:09.937Z,1002.21
2016-12-04T11:20:10.063Z,1002.23
2016-12-04T11:21:10.002Z,1002.24
2016-12-04T11:22:10.028Z,1002.23
2016-12-04T11:23:10.062Z,1002.23
2016-12-04T11:24:10.086Z,1002.2
2016-12-04T11:25:10.116Z,1002.19
2016-12-04T11:26:10.144Z,1002.24
2016-12-04T11:27:10.173Z,1002.21
2016-12-04T11:28:10.193Z,1002.22
2016-12-04T11:29:10.226Z,1002.2
2016-12-04T11:30:10.254Z,1002.23
2016-12-04T11:31:10.279Z,1002.2
2016-12-04T11:32:10.548Z,1002.24
2016-12-04T11:33:10.628Z,1002.17
2016-12-04T11:34:10.663Z,1002.2
2016-12-04T11:35:10.694Z,1002.17
2016-12-04T11:36:10.702Z,1002.15
2016-12-04T11:37:10.444Z,1002.17
2016-12-04T11:38:10.762Z,1002.15
2016-12-04T11:39:10.789Z,1002.14
2016-12-04T11:40:10.775Z,1002.15
2016-12-04T11:41:10.771Z,1002.14
2016-12-04T11:42:10.871Z,1002.17
2016-12-04T11:43:10.607Z,1002.17
2016-12-04T11:44:10.636Z,1002.17
2016-12-04T11:45:10.662Z,1002.2
2016-12-04T11:46:10.691Z,1002.18
2016-12-04T11:47:10.717Z,1002.16
2016-12-04T11:48:10.742Z,1002.16
2016-12-04T11:49:10.777Z,1002.13
2016-12-04T11:50:10.803Z,1002.1
2016-12-04T11:51:10.838Z,1002.13
2016-12-04T11:52:10.855Z,1002.11
2016-12-04T11:53:10.885Z,1002.09
2016-12-04T11:54:10.911Z,1002.11
2016-12-04T11:55:10.937Z,1002.11
2016-12-04T11:56:10.970Z,1002.07
2016-12-04T11:57:10.995Z,1002.03
2016-12-04T11:58:11.023Z,1002.07
2016-12-04T11:59:11.063Z,1002.05
2016-12-04T12:00:11.081Z,1002.05
2016-12-04T12:01:11.106Z,1002.03
2016-12-04T12:02:11.131Z,1002.08
2016-12-04T12:03:11.158Z,1002.04
2016-12-04T12:04:11.185Z,1002.04
2016-12-04T12:05:11.216Z,1001.99
2016-12-04T12:06:11.245Z,1002.01
2016-12-04T12:07:11.266Z,1001.93
2016-12-04T12:08:11.295Z,1001.92
2016-12-04T12:09:11.321Z,1001.96